Zoutleeuw, Belgium
Current Conditions -  °F | °C
As of 6:25 PM on Thursday 30 Oct 2014 (Local Time) from EBDT Reporting Station
Broken Clouds Broken Clouds  
Wind Chill: 59°   Ceiling: 14000
Heat Index: 59°   Visibility: 5mi
Dew Point: 57°   Wind: 6mph
Humidity: 94%   Direction: 170°S
Pressure: 30.18"   Gusts: NA
Location:  50.83°N, 5.1°E
Report Text: EBDT 301725Z AUTO 17005KT 8000 FEW100/// BKN140/// 15/14 Q1022 BLU
Loading
Personal Weather Stations






























Interactive Weather Map
Tropical Storm Tracking
New forecast layout! Learn more

10-Day Weather Forecast

Advertisements
Track Severe Weather on mobile